Time;durP1;ratioP1;P1;durP2;ratioP2;P2;SDS_P1;SDS_P2;PMS_P1;PMS_P2;Temp;Humidity;BMP_temperature;BMP_pressure;BME280_temperature;BME280_humidity;BME280_pressure;Samples;Min_cycle;Max_cycle;Signal;HPM_P1;HPM_P2
2022/09/11 00:01:32;;;;;;;1.20;1.10;;;;;;;;;;5014582;28;20778;-66
2022/09/11 00:03:58;;;;;;;3.57;1.30;;;;;;;;;;5014168;28;20404;-67
2022/09/11 00:06:25;;;;;;;1.23;1.07;;;;;;;;;;5014228;28;20400;-65
2022/09/11 00:08:52;;;;;;;1.30;0.90;;;;;;;;;;5014141;28;20496;-65
2022/09/11 00:11:19;;;;;;;1.07;0.93;;;;;;;;;;5014050;28;20412;-67
2022/09/11 00:13:47;;;;;;;2.40;1.20;;;;;;;;;;5014138;28;20895;-66
2022/09/11 00:16:29;;;;;;;12.00;1.40;;;;;;;;;;5013966;28;20857;-66
2022/09/11 00:18:57;;;;;;;1.10;1.10;;;;;;;;;;5014008;28;20775;-64
2022/09/11 00:21:24;;;;;;;2.20;1.10;;;;;;;;;;5014020;28;20423;-66
2022/09/11 00:23:50;;;;;;;7.63;1.33;;;;;;;;;;5013931;28;20457;-67
2022/09/11 00:26:17;;;;;;;1.23;1.13;;;;;;;;;;5012533;28;20463;-64
2022/09/11 00:28:44;;;;;;;7.07;1.30;;;;;;;;;;5013957;28;20775;-64
2022/09/11 00:31:14;;;;;;;2.93;1.20;;;;;;;;;;5013888;28;20428;-63
2022/09/11 00:33:40;;;;;;;2.20;1.00;;;;;;;;;;5013762;28;20489;-63
2022/09/11 00:36:08;;;;;;;2.40;1.70;;;;;;;;;;5013741;28;20424;-65
2022/09/11 00:38:35;;;;;;;4.00;1.50;;;;;;;;;;5013812;28;20420;-63
2022/09/11 00:41:02;;;;;;;3.03;1.53;;;;;;;;;;5013669;28;20554;-66
2022/09/11 00:43:29;;;;;;;2.30;1.30;;;;;;;;;;5013608;28;20417;-64
2022/09/11 00:46:00;;;;;;;2.57;1.07;;;;;;;;;;5013718;28;20911;-64
2022/09/11 00:48:29;;;;;;;5.80;1.50;;;;;;;;;;5012293;28;20476;-64
2022/09/11 00:50:57;;;;;;;1.30;1.30;;;;;;;;;;5013402;28;20436;-64
2022/09/11 00:53:24;;;;;;;1.87;1.57;;;;;;;;;;5013664;28;20451;-63
2022/09/11 00:55:53;;;;;;;3.80;1.70;;;;;;;;;;5012616;28;20420;-64
2022/09/11 00:58:24;;;;;;;1.13;1.03;;;;;;;;;;5013519;28;20410;-64
2022/09/11 01:00:51;;;;;;;3.03;0.93;;;;;;;;;;5013555;28;20420;-63
2022/09/11 01:03:18;;;;;;;1.27;1.07;;;;;;;;;;5013507;28;20963;-64
2022/09/11 01:05:44;;;;;;;1.40;1.30;;;;;;;;;;5013786;28;20405;-63
2022/09/11 01:08:10;;;;;;;2.53;1.10;;;;;;;;;;5013311;28;20464;-63
2022/09/11 01:10:40;;;;;;;3.97;1.30;;;;;;;;;;5013403;28;20993;-63
2022/09/11 01:13:12;;;;;;;2.17;1.47;;;;;;;;;;5016849;28;20416;-64
2022/09/11 01:15:38;;;;;;;3.70;1.20;;;;;;;;;;5016090;28;20427;-63
2022/09/11 01:18:21;;;;;;;4.23;1.57;;;;;;;;;;5017263;28;20424;-64
2022/09/11 01:21:05;;;;;;;1.17;1.07;;;;;;;;;;5017286;28;20446;-63
2022/09/11 01:23:34;;;;;;;3.90;1.10;;;;;;;;;;5017141;28;20419;-64
2022/09/11 01:26:06;;;;;;;2.40;1.07;;;;;;;;;;5015826;28;20507;-64
2022/09/11 01:28:51;;;;;;;2.83;1.47;;;;;;;;;;5015721;28;20533;-64
2022/09/11 01:31:20;;;;;;;7.93;1.63;;;;;;;;;;5017024;28;20420;-63
2022/09/11 01:34:04;;;;;;;3.37;1.50;;;;;;;;;;5017013;28;20408;-64
2022/09/11 01:36:34;;;;;;;1.47;1.37;;;;;;;;;;5016952;28;20802;-64
2022/09/11 01:39:02;;;;;;;4.57;1.50;;;;;;;;;;5016943;28;20779;-63
2022/09/11 01:41:28;;;;;;;3.07;1.80;;;;;;;;;;5015612;28;20571;-64
2022/09/11 01:44:05;;;;;;;1.30;1.30;;;;;;;;;;5016811;28;20960;-64
2022/09/11 01:46:34;;;;;;;1.27;1.17;;;;;;;;;;5016761;28;20462;-64
2022/09/11 01:49:05;;;;;;;1.70;1.17;;;;;;;;;;5016758;28;20472;-65
2022/09/11 01:51:34;;;;;;;4.40;1.40;;;;;;;;;;5016489;28;20480;-64
2022/09/11 01:54:02;;;;;;;2.30;2.00;;;;;;;;;;5016699;28;20503;-66
2022/09/11 01:56:34;;;;;;;1.60;1.50;;;;;;;;;;5016561;28;20895;-67
2022/09/11 01:59:03;;;;;;;7.20;1.43;;;;;;;;;;5015263;28;20428;-67
2022/09/11 02:01:32;;;;;;;3.10;1.20;;;;;;;;;;5015209;28;20416;-64
2022/09/11 02:04:06;;;;;;;1.00;1.00;;;;;;;;;;5016389;28;20903;-67
2022/09/11 02:06:34;;;;;;;1.83;1.40;;;;;;;;;;5016647;28;20408;-64
2022/09/11 02:09:02;;;;;;;1.57;1.47;;;;;;;;;;5016288;28;20423;-64
2022/09/11 02:11:33;;;;;;;4.53;1.60;;;;;;;;;;5016210;28;20452;-64
2022/09/11 02:14:09;;;;;;;3.20;1.30;;;;;;;;;;5016194;28;20545;-63
2022/09/11 02:16:41;;;;;;;1.13;1.13;;;;;;;;;;5016194;28;20412;-64
2022/09/11 02:19:27;;;;;;;2.40;1.50;;;;;;;;;;5016152;28;20416;-66
2022/09/11 02:21:53;;;;;;;2.00;1.23;;;;;;;;;;4998046;28;20485;-67
2022/09/11 02:24:24;;;;;;;1.33;1.23;;;;;;;;;;5016001;28;20427;-64
2022/09/11 02:26:52;;;;;;;1.20;1.20;;;;;;;;;;5015923;28;20463;-64
2022/09/11 02:29:19;;;;;;;2.83;1.33;;;;;;;;;;5016268;28;20444;-67
2022/09/11 02:31:46;;;;;;;2.33;1.50;;;;;;;;;;5016096;28;20399;-68
2022/09/11 02:34:12;;;;;;;2.10;1.20;;;;;;;;;;5015963;28;20883;-67
2022/09/11 02:36:44;;;;;;;1.90;1.10;;;;;;;;;;5015972;28;20419;-67
2022/09/11 02:39:17;;;;;;;2.30;1.10;;;;;;;;;;5014523;28;20522;-67
2022/09/11 02:41:56;;;;;;;1.30;1.30;;;;;;;;;;5015666;28;20514;-68
2022/09/11 02:44:36;;;;;;;4.47;1.40;;;;;;;;;;5015595;28;20412;-67
2022/09/11 02:47:09;;;;;;;2.40;1.50;;;;;;;;;;5015548;28;20517;-67
2022/09/11 02:49:53;;;;;;;3.60;1.40;;;;;;;;;;5015484;28;20447;-63
2022/09/11 02:52:32;;;;;;;1.20;1.10;;;;;;;;;;5015452;28;20518;-67
2022/09/11 02:55:21;;;;;;;2.30;1.27;;;;;;;;;;5015455;28;20420;-67
2022/09/11 02:57:50;;;;;;;1.27;1.03;;;;;;;;;;5015635;28;20427;-67
2022/09/11 03:00:17;;;;;;;1.77;1.63;;;;;;;;;;5015426;28;20439;-67
2022/09/11 03:02:43;;;;;;;3.93;1.70;;;;;;;;;;5015314;28;20416;-67
2022/09/11 03:05:09;;;;;;;1.90;1.50;;;;;;;;;;5013980;28;20468;-67
2022/09/11 03:07:35;;;;;;;3.97;1.60;;;;;;;;;;5015216;28;20508;-67
2022/09/11 03:10:02;;;;;;;1.73;1.63;;;;;;;;;;5015119;28;20408;-67
2022/09/11 03:12:28;;;;;;;1.70;1.53;;;;;;;;;;5015094;28;20462;-67
2022/09/11 03:14:55;;;;;;;2.20;1.40;;;;;;;;;;5015113;28;20400;-67
2022/09/11 03:17:21;;;;;;;2.60;1.50;;;;;;;;;;5015419;28;20427;-63
2022/09/11 03:19:48;;;;;;;1.53;1.53;;;;;;;;;;5014921;28;20808;-64
2022/09/11 03:22:14;;;;;;;2.87;1.30;;;;;;;;;;5014927;28;20416;-66
2022/09/11 03:24:40;;;;;;;1.33;1.10;;;;;;;;;;5014913;28;20911;-67
2022/09/11 03:27:06;;;;;;;1.80;1.70;;;;;;;;;;5013501;28;20536;-65
2022/09/11 03:29:32;;;;;;;2.00;1.37;;;;;;;;;;5014808;28;20470;-67
2022/09/11 03:31:58;;;;;;;1.40;1.30;;;;;;;;;;5014880;28;20772;-64
2022/09/11 03:34:24;;;;;;;5.30;1.37;;;;;;;;;;5013984;28;20562;-65
2022/09/11 03:36:51;;;;;;;1.67;1.57;;;;;;;;;;5013454;28;20463;-66
2022/09/11 03:39:17;;;;;;;1.80;1.50;;;;;;;;;;5014642;28;20757;-65
2022/09/11 03:41:43;;;;;;;3.57;2.00;;;;;;;;;;5014633;28;20513;-66
2022/09/11 03:44:11;;;;;;;2.77;1.67;;;;;;;;;;5014493;28;20771;-67
2022/09/11 03:46:37;;;;;;;4.67;1.97;;;;;;;;;;5014731;28;20447;-66
2022/09/11 03:49:04;;;;;;;5.57;2.27;;;;;;;;;;5014531;28;21095;-64
2022/09/11 03:51:30;;;;;;;8.27;2.17;;;;;;;;;;5014486;28;20503;-63
2022/09/11 03:53:58;;;;;;;2.63;1.70;;;;;;;;;;5014608;28;20420;-64
2022/09/11 03:56:24;;;;;;;3.97;1.70;;;;;;;;;;5014336;28;20411;-64
2022/09/11 03:58:54;;;;;;;3.97;1.80;;;;;;;;;;5013083;28;20423;-63
2022/09/11 04:01:20;;;;;;;2.50;1.80;;;;;;;;;;5014614;28;20424;-64
2022/09/11 04:03:46;;;;;;;2.97;1.70;;;;;;;;;;5014478;28;20423;-64
2022/09/11 04:06:12;;;;;;;3.73;2.00;;;;;;;;;;5014127;28;20468;-63
2022/09/11 04:08:40;;;;;;;2.00;1.70;;;;;;;;;;5014128;28;20508;-63
2022/09/11 04:11:06;;;;;;;1.60;1.50;;;;;;;;;;5014097;28;20783;-64
2022/09/11 04:13:33;;;;;;;3.10;2.00;;;;;;;;;;5014072;28;20744;-64
2022/09/11 04:16:01;;;;;;;2.43;1.57;;;;;;;;;;5014087;28;20769;-63
2022/09/11 04:18:28;;;;;;;2.00;1.87;;;;;;;;;;5013999;28;20408;-67
2022/09/11 04:20:54;;;;;;;2.23;1.60;;;;;;;;;;5013970;28;20442;-63
2022/09/11 04:23:20;;;;;;;2.83;1.40;;;;;;;;;;5013903;28;20420;-63
2022/09/11 04:25:46;;;;;;;2.37;1.80;;;;;;;;;;5013835;28;20914;-63
2022/09/11 04:28:13;;;;;;;2.10;1.90;;;;;;;;;;5014044;28;20468;-63
2022/09/11 04:30:39;;;;;;;2.10;1.60;;;;;;;;;;5012564;28;20423;-62
2022/09/11 04:33:05;;;;;;;2.93;2.07;;;;;;;;;;5013789;28;20408;-63
2022/09/11 04:35:38;;;;;;;6.33;2.03;;;;;;;;;;5014014;28;20404;-63
2022/09/11 04:38:04;;;;;;;4.00;1.63;;;;;;;;;;5013701;28;20410;-65
2022/09/11 04:40:32;;;;;;;2.97;1.90;;;;;;;;;;5013689;28;20409;-63
2022/09/11 04:42:58;;;;;;;4.20;1.70;;;;;;;;;;5013768;28;20498;-63
2022/09/11 04:45:24;;;;;;;4.90;2.10;;;;;;;;;;5012260;28;20443;-63
2022/09/11 04:47:51;;;;;;;4.00;1.97;;;;;;;;;;5013533;28;20470;-64
2022/09/11 04:50:17;;;;;;;3.47;2.00;;;;;;;;;;5012386;28;20512;-64
2022/09/11 04:52:46;;;;;;;3.90;1.90;;;;;;;;;;5013400;28;20482;-64
2022/09/11 04:55:12;;;;;;;3.00;1.70;;;;;;;;;;5013483;28;20443;-63
2022/09/11 04:57:38;;;;;;;2.63;1.80;;;;;;;;;;5013507;28;20477;-64
2022/09/11 05:00:05;;;;;;;4.97;2.00;;;;;;;;;;5013530;28;20521;-66
2022/09/11 05:02:32;;;;;;;2.20;1.70;;;;;;;;;;5013603;28;20447;-63
2022/09/11 05:04:58;;;;;;;1.93;1.80;;;;;;;;;;5013496;28;20412;-63
2022/09/11 05:07:24;;;;;;;2.53;2.07;;;;;;;;;;5013360;28;20536;-63
2022/09/11 05:09:54;;;;;;;8.50;2.00;;;;;;;;;;5013418;28;20509;-63
2022/09/11 05:12:22;;;;;;;3.67;1.80;;;;;;;;;;5013584;28;20423;-64
2022/09/11 05:14:49;;;;;;;3.03;1.87;;;;;;;;;;5013336;28;20517;-64
2022/09/11 05:17:15;;;;;;;2.57;2.10;;;;;;;;;;5013446;28;20412;-64
2022/09/11 05:19:42;;;;;;;2.90;2.00;;;;;;;;;;5013455;28;20411;-63
2022/09/11 05:22:08;;;;;;;4.80;1.70;;;;;;;;;;5013366;28;20498;-63
2022/09/11 05:24:34;;;;;;;2.10;1.57;;;;;;;;;;5013324;28;20931;-65
2022/09/11 05:27:00;;;;;;;5.47;2.13;;;;;;;;;;5011936;28;20474;-64
2022/09/11 05:29:28;;;;;;;2.63;1.40;;;;;;;;;;5013207;28;20408;-63
2022/09/11 05:31:57;;;;;;;1.67;1.57;;;;;;;;;;5013303;28;20404;-63
2022/09/11 05:34:23;;;;;;;11.73;7.37;;;;;;;;;;5013251;28;20410;-64
2022/09/11 05:36:50;;;;;;;28.80;25.70;;;;;;;;;;5013167;28;20895;-64
2022/09/11 05:39:16;;;;;;;7.80;7.13;;;;;;;;;;5013305;28;20394;-67
2022/09/11 05:41:42;;;;;;;6.20;5.20;;;;;;;;;;5013193;28;20752;-66
2022/09/11 05:44:08;;;;;;;8.83;7.90;;;;;;;;;;5013210;28;20731;-65
2022/09/11 05:46:34;;;;;;;4.13;3.80;;;;;;;;;;5013152;28;20462;-67
2022/09/11 05:49:00;;;;;;;7.13;3.80;;;;;;;;;;5013104;28;20415;-67
2022/09/11 05:51:25;;;;;;;3.07;2.87;;;;;;;;;;5012969;28;20495;-65
2022/09/11 05:53:52;;;;;;;3.70;2.70;;;;;;;;;;5013155;28;20412;-64
2022/09/11 05:56:20;;;;;;;2.00;1.80;;;;;;;;;;5013046;28;20919;-66
2022/09/11 05:58:46;;;;;;;2.30;2.20;;;;;;;;;;5014440;28;20602;-67
2022/09/11 06:01:14;;;;;;;7.63;2.70;;;;;;;;;;5016502;28;20427;-63
2022/09/11 06:03:40;;;;;;;3.27;1.70;;;;;;;;;;5016420;28;20412;-68
2022/09/11 06:06:07;;;;;;;2.20;1.87;;;;;;;;;;5015419;28;20436;-65
2022/09/11 06:08:33;;;;;;;2.00;1.90;;;;;;;;;;5015008;28;20483;-67
2022/09/11 06:11:01;;;;;;;2.87;1.70;;;;;;;;;;5016394;28;20435;-66
2022/09/11 06:13:30;;;;;;;2.40;2.17;;;;;;;;;;5016523;28;20412;-65
2022/09/11 06:15:57;;;;;;;3.43;1.90;;;;;;;;;;5016229;28;20416;-67
2022/09/11 06:18:22;;;;;;;2.77;1.90;;;;;;;;;;5016237;28;20412;-67
2022/09/11 06:20:55;;;;;;;1.97;1.83;;;;;;;;;;5016105;28;20507;-64
2022/09/11 06:23:21;;;;;;;5.67;1.87;;;;;;;;;;5016370;28;20408;-66
2022/09/11 06:25:47;;;;;;;2.10;1.47;;;;;;;;;;5015946;28;20403;-70
2022/09/11 06:28:13;;;;;;;4.83;1.60;;;;;;;;;;5016011;28;20892;-68
2022/09/11 06:30:42;;;;;;;3.00;1.63;;;;;;;;;;5014636;28;20615;-67
2022/09/11 06:33:09;;;;;;;8.03;2.00;;;;;;;;;;5015937;28;20493;-67
2022/09/11 06:35:35;;;;;;;3.13;1.80;;;;;;;;;;5015874;28;20416;-68
2022/09/11 06:38:01;;;;;;;2.80;1.33;;;;;;;;;;5015773;28;20473;-67
2022/09/11 06:40:27;;;;;;;4.03;1.77;;;;;;;;;;5016009;28;20407;-66
2022/09/11 06:42:53;;;;;;;2.67;1.87;;;;;;;;;;5015616;28;20788;-67
2022/09/11 06:45:20;;;;;;;4.40;1.57;;;;;;;;;;5015659;28;20404;-67
2022/09/11 06:47:46;;;;;;;3.67;1.90;;;;;;;;;;5015690;28;20475;-69
2022/09/11 06:50:13;;;;;;;5.13;1.63;;;;;;;;;;5015522;28;20404;-69
2022/09/11 06:52:39;;;;;;;2.93;2.00;;;;;;;;;;5015363;28;20829;-71
2022/09/11 06:55:06;;;;;;;2.70;1.77;;;;;;;;;;5015557;28;20404;-68
2022/09/11 06:57:32;;;;;;;2.10;1.70;;;;;;;;;;5015373;28;20417;-71
2022/09/11 06:59:58;;;;;;;1.60;1.53;;;;;;;;;;5015346;28;20411;-71
2022/09/11 07:02:24;;;;;;;7.77;2.30;;;;;;;;;;5015403;28;20413;-69
2022/09/11 07:04:51;;;;;;;1.70;1.70;;;;;;;;;;5013982;28;20450;-68
2022/09/11 07:07:17;;;;;;;1.77;1.67;;;;;;;;;;5015439;28;20825;-70
2022/09/11 07:09:43;;;;;;;7.50;1.80;;;;;;;;;;5014133;28;20404;-69
2022/09/11 07:12:10;;;;;;;4.03;1.60;;;;;;;;;;5015251;28;20538;-71
2022/09/11 07:14:37;;;;;;;1.93;1.57;;;;;;;;;;5015493;28;20402;-69
2022/09/11 07:17:03;;;;;;;5.00;1.70;;;;;;;;;;5015082;28;20416;-71
2022/09/11 07:19:29;;;;;;;2.07;1.97;;;;;;;;;;5015009;28;20408;-69
2022/09/11 07:21:55;;;;;;;2.43;1.70;;;;;;;;;;5013650;28;20452;-67
2022/09/11 07:24:21;;;;;;;1.83;1.47;;;;;;;;;;5014881;28;20418;-68
2022/09/11 07:26:47;;;;;;;8.00;1.50;;;;;;;;;;5014772;28;20515;-68
2022/09/11 07:29:13;;;;;;;1.10;1.10;;;;;;;;;;5013551;28;20431;-67
2022/09/11 07:31:39;;;;;;;6.20;1.67;;;;;;;;;;5014843;28;20418;-70
2022/09/11 07:34:05;;;;;;;3.23;1.70;;;;;;;;;;5014673;28;20420;-69
2022/09/11 07:36:32;;;;;;;3.73;1.50;;;;;;;;;;5014703;28;20404;-67
2022/09/11 07:38:58;;;;;;;2.07;1.50;;;;;;;;;;5014825;28;20500;-69
2022/09/11 07:41:25;;;;;;;4.60;1.40;;;;;;;;;;5014534;28;20482;-69
2022/09/11 07:43:55;;;;;;;3.63;1.70;;;;;;;;;;5014639;28;20896;-69
2022/09/11 07:46:21;;;;;;;4.27;1.60;;;;;;;;;;5014520;28;20786;-70
2022/09/11 07:48:47;;;;;;;3.30;1.50;;;;;;;;;;5014413;28;20469;-67
2022/09/11 07:51:14;;;;;;;3.23;1.80;;;;;;;;;;5014111;28;20459;-67
2022/09/11 07:53:42;;;;;;;2.70;1.30;;;;;;;;;;5014653;28;20421;-72
2022/09/11 07:56:10;;;;;;;2.70;1.57;;;;;;;;;;5014887;28;20420;-71
2022/09/11 07:58:37;;;;;;;1.83;1.73;;;;;;;;;;5014854;28;20417;-72
2022/09/11 08:01:04;;;;;;;1.23;1.23;;;;;;;;;;5014688;28;20749;-72
2022/09/11 08:03:30;;;;;;;3.53;2.30;;;;;;;;;;5014412;28;20910;-70
2022/09/11 08:05:57;;;;;;;1.77;1.67;;;;;;;;;;5013029;28;20435;-70
2022/09/11 08:08:23;;;;;;;3.27;2.97;;;;;;;;;;5014135;28;20470;-70
2022/09/11 08:10:49;;;;;;;3.10;1.77;;;;;;;;;;5013983;28;20399;-71
2022/09/11 08:13:15;;;;;;;1.27;1.27;;;;;;;;;;5014100;28;20885;-70
2022/09/11 08:15:49;;;;;;;2.97;1.43;;;;;;;;;;5012851;28;20458;-71
2022/09/11 08:18:15;;;;;;;2.40;1.47;;;;;;;;;;5014046;28;20500;-71
2022/09/11 08:20:41;;;;;;;2.00;1.40;;;;;;;;;;5013662;28;20501;-70
2022/09/11 08:23:08;;;;;;;6.73;1.40;;;;;;;;;;5013994;28;20468;-71
2022/09/11 08:25:35;;;;;;;1.67;1.30;;;;;;;;;;5013781;28;20851;-70
2022/09/11 08:28:01;;;;;;;1.70;1.03;;;;;;;;;;5012423;28;20847;-71
2022/09/11 08:30:27;;;;;;;2.63;1.40;;;;;;;;;;5012694;28;20517;-71
2022/09/11 08:32:53;;;;;;;3.07;1.10;;;;;;;;;;5013915;28;20827;-69
2022/09/11 08:35:20;;;;;;;1.40;1.30;;;;;;;;;;5012486;28;20447;-71
2022/09/11 08:37:45;;;;;;;1.87;1.20;;;;;;;;;;5013805;28;20528;-71
2022/09/11 08:40:12;;;;;;;4.73;1.43;;;;;;;;;;5012502;28;20468;-71
2022/09/11 08:42:42;;;;;;;1.50;1.47;;;;;;;;;;5013659;28;20421;-72
2022/09/11 08:45:19;;;;;;;1.40;1.30;;;;;;;;;;5013991;28;20406;-71
2022/09/11 08:47:52;;;;;;;3.50;1.13;;;;;;;;;;5012323;28;20479;-71
2022/09/11 08:50:23;;;;;;;1.93;1.53;;;;;;;;;;5013622;28;20406;-71
2022/09/11 08:52:49;;;;;;;3.13;1.00;;;;;;;;;;5013387;28;20461;-71
2022/09/11 08:55:19;;;;;;;1.30;1.30;;;;;;;;;;5013548;28;20471;-71
2022/09/11 08:57:49;;;;;;;2.77;1.40;;;;;;;;;;5012272;28;20410;-75
2022/09/11 09:00:16;;;;;;;1.77;1.07;;;;;;;;;;5013733;28;20524;-70
2022/09/11 09:02:52;;;;;;;1.50;1.40;;;;;;;;;;5013508;28;20845;-71
2022/09/11 09:05:33;;;;;;;1.23;1.23;;;;;;;;;;5013569;28;20417;-71
2022/09/11 09:08:17;;;;;;;20.97;17.77;;;;;;;;;;5013400;28;20472;-70
2022/09/11 09:10:49;;;;;;;1.80;1.30;;;;;;;;;;5013388;28;20920;-70
2022/09/11 09:13:22;;;;;;;2.80;1.07;;;;;;;;;;5013416;28;20421;-70
2022/09/11 09:16:03;;;;;;;3.20;3.00;;;;;;;;;;5013376;28;20432;-72
2022/09/11 09:18:52;;;;;;;2.80;2.57;;;;;;;;;;5013353;28;20411;-70
2022/09/11 09:21:27;;;;;;;1.30;1.20;;;;;;;;;;4983290;28;20430;-70
2022/09/11 09:23:56;;;;;;;1.37;1.33;;;;;;;;;;5013377;28;20462;-71
2022/09/11 09:26:27;;;;;;;1.30;1.30;;;;;;;;;;5013249;28;20414;-70
2022/09/11 09:28:55;;;;;;;1.10;1.00;;;;;;;;;;4995830;28;20477;-79
2022/09/11 09:31:22;;;;;;;0.87;0.87;;;;;;;;;;5013238;28;20431;-70
2022/09/11 09:34:08;;;;;;;2.50;1.00;;;;;;;;;;5016130;28;20412;-70
2022/09/11 09:36:55;;;;;;;1.37;1.10;;;;;;;;;;5016952;28;20403;-69
2022/09/11 09:39:22;;;;;;;1.20;1.20;;;;;;;;;;5016911;28;20944;-67
2022/09/11 09:42:02;;;;;;;1.83;1.40;;;;;;;;;;5016826;28;20415;-69
2022/09/11 09:44:47;;;;;;;6.30;1.30;;;;;;;;;;5016769;28;20498;-73
2022/09/11 09:47:14;;;;;;;1.20;1.10;;;;;;;;;;5016649;28;20540;-71
2022/09/11 09:49:40;;;;;;;2.30;1.50;;;;;;;;;;5017029;28;20423;-70
2022/09/11 09:52:15;;;;;;;1.17;1.17;;;;;;;;;;5016654;28;20459;-68
2022/09/11 09:54:42;;;;;;;2.03;1.80;;;;;;;;;;5016660;28;20478;-73
2022/09/11 09:57:10;;;;;;;39.20;33.90;;;;;;;;;;5016546;28;20799;-74
2022/09/11 09:59:54;;;;;;;3.43;2.50;;;;;;;;;;4999160;28;20426;-72
2022/09/11 10:02:37;;;;;;;1.97;1.33;;;;;;;;;;5016480;28;20503;-69
2022/09/11 10:05:15;;;;;;;1.57;1.47;;;;;;;;;;5016451;28;20497;-69
2022/09/11 10:07:52;;;;;;;1.40;1.30;;;;;;;;;;5016305;28;20590;-73
2022/09/11 10:10:37;;;;;;;2.93;1.30;;;;;;;;;;5016390;28;20416;-67
2022/09/11 10:13:07;;;;;;;2.80;1.10;;;;;;;;;;5016491;28;20412;-72
2022/09/11 10:15:38;;;;;;;3.07;1.10;;;;;;;;;;5016285;28;20418;-66
2022/09/11 10:18:23;;;;;;;3.27;2.93;;;;;;;;;;5016085;28;20410;-70
2022/09/11 10:20:50;;;;;;;1.43;1.37;;;;;;;;;;5016310;28;20428;-67
2022/09/11 10:23:26;;;;;;;1.20;1.10;;;;;;;;;;5016303;28;20463;-72
2022/09/11 10:25:52;;;;;;;1.87;1.33;;;;;;;;;;5015944;28;20416;-70
2022/09/11 10:28:26;;;;;;;1.73;1.30;;;;;;;;;;5015025;28;20480;-69
2022/09/11 10:30:52;;;;;;;5.50;1.30;;;;;;;;;;5015837;28;20756;-67
2022/09/11 10:33:18;;;;;;;0.90;0.90;;;;;;;;;;5016000;28;20415;-68
2022/09/11 10:35:53;;;;;;;6.70;1.23;;;;;;;;;;5015647;28;20413;-69
2022/09/11 10:38:20;;;;;;;3.63;1.20;;;;;;;;;;5015800;28;20192;-70
2022/09/11 10:41:07;;;;;;;1.23;0.90;;;;;;;;;;5015706;28;20402;-71
2022/09/11 10:43:48;;;;;;;1.43;1.30;;;;;;;;;;5015387;28;20398;-72
2022/09/11 10:46:17;;;;;;;1.17;1.17;;;;;;;;;;5015821;28;20411;-73
2022/09/11 10:48:53;;;;;;;3.07;1.30;;;;;;;;;;5015421;28;20565;-70
2022/09/11 10:51:19;;;;;;;2.00;0.90;;;;;;;;;;5015409;28;20462;-68
2022/09/11 10:53:53;;;;;;;1.53;1.10;;;;;;;;;;5015583;28;20416;-71
2022/09/11 10:56:20;;;;;;;3.43;1.00;;;;;;;;;;5015409;28;20493;-71
2022/09/11 10:58:47;;;;;;;1.37;1.20;;;;;;;;;;5015405;28;20418;-68
2022/09/11 11:01:14;;;;;;;1.40;1.40;;;;;;;;;;5015422;28;20800;-74
2022/09/11 11:03:40;;;;;;;0.90;0.90;;;;;;;;;;5015299;28;20409;-74
2022/09/11 11:06:16;;;;;;;0.97;0.97;;;;;;;;;;5015377;28;20828;-74
2022/09/11 11:08:56;;;;;;;1.83;1.73;;;;;;;;;;5015187;28;20468;-73
2022/09/11 11:11:25;;;;;;;3.53;1.77;;;;;;;;;;5015161;28;20851;-73
2022/09/11 11:13:57;;;;;;;1.27;1.27;;;;;;;;;;5015310;28;20409;-75
2022/09/11 11:16:46;;;;;;;1.40;1.30;;;;;;;;;;5015385;28;20405;-73
2022/09/11 11:19:21;;;;;;;1.07;1.07;;;;;;;;;;4969745;28;20910;-70
2022/09/11 11:21:53;;;;;;;3.00;1.40;;;;;;;;;;5014990;28;20421;-71
2022/09/11 11:24:45;;;;;;;1.27;1.27;;;;;;;;;;5014963;28;20452;-66
2022/09/11 11:27:14;;;;;;;1.80;1.27;;;;;;;;;;5003735;28;20478;-71
2022/09/11 11:29:59;;;;;;;1.10;0.90;;;;;;;;;;5014856;28;20479;-70
2022/09/11 11:32:44;;;;;;;5.60;5.10;;;;;;;;;;5014777;28;20439;-70
2022/09/11 11:35:16;;;;;;;1.30;1.20;;;;;;;;;;5014725;28;20411;-66
2022/09/11 11:37:45;;;;;;;2.10;1.20;;;;;;;;;;5015005;28;20403;-65
2022/09/11 11:40:17;;;;;;;1.57;1.10;;;;;;;;;;5014642;28;20502;-69
2022/09/11 11:42:45;;;;;;;1.27;1.17;;;;;;;;;;5014567;28;20425;-70
2022/09/11 11:45:31;;;;;;;2.40;0.97;;;;;;;;;;5014375;28;20819;-72
2022/09/11 11:47:58;;;;;;;1.17;0.90;;;;;;;;;;5014404;28;21016;-69
2022/09/11 11:50:24;;;;;;;1.17;1.07;;;;;;;;;;5013185;28;20413;-73
2022/09/11 11:53:00;;;;;;;1.10;1.00;;;;;;;;;;5014287;28;20664;-69
2022/09/11 11:55:39;;;;;;;0.90;0.90;;;;;;;;;;5013843;28;20255;-73
2022/09/11 11:58:05;;;;;;;1.03;1.00;;;;;;;;;;5014260;28;20909;-72
2022/09/11 12:00:37;;;;;;;2.00;1.47;;;;;;;;;;5014251;28;20469;-72
2022/09/11 12:03:09;;;;;;;1.93;0.80;;;;;;;;;;5014254;28;20176;-71
2022/09/11 12:05:37;;;;;;;1.03;1.03;;;;;;;;;;5014187;28;20495;-71
2022/09/11 12:08:04;;;;;;;1.07;0.97;;;;;;;;;;5014123;28;20476;-72
2022/09/11 12:10:30;;;;;;;4.03;1.00;;;;;;;;;;5014199;28;20420;-71
2022/09/11 12:12:58;;;;;;;1.50;1.33;;;;;;;;;;5014005;28;20425;-69
2022/09/11 12:15:28;;;;;;;0.83;0.83;;;;;;;;;;5013939;28;20442;-72
2022/09/11 12:18:12;;;;;;;1.10;1.10;;;;;;;;;;5014087;28;20529;-70
2022/09/11 12:20:42;;;;;;;2.20;0.80;;;;;;;;;;5013990;28;20417;-69
2022/09/11 12:23:28;;;;;;;2.40;1.23;;;;;;;;;;5013959;28;20396;-70
2022/09/11 12:26:12;;;;;;;1.20;0.90;;;;;;;;;;5013846;28;20411;-69
2022/09/11 12:28:39;;;;;;;1.07;1.07;;;;;;;;;;5012335;28;20497;-70
2022/09/11 12:31:07;;;;;;;1.53;1.10;;;;;;;;;;5013779;28;20426;-69
2022/09/11 12:33:42;;;;;;;2.80;1.10;;;;;;;;;;5012821;28;20444;-70
2022/09/11 12:36:10;;;;;;;1.47;1.37;;;;;;;;;;5012806;28;20892;-69
2022/09/11 12:38:39;;;;;;;1.23;0.80;;;;;;;;;;5013798;28;20433;-70
2022/09/11 12:41:13;;;;;;;1.00;1.00;;;;;;;;;;5013643;28;20413;-70
2022/09/11 12:43:42;;;;;;;1.00;0.90;;;;;;;;;;5013021;28;20446;-69
2022/09/11 12:46:11;;;;;;;1.43;0.80;;;;;;;;;;5013647;28;20161;-71
2022/09/11 12:48:44;;;;;;;0.90;0.90;;;;;;;;;;5013660;28;20851;-69
2022/09/11 12:51:22;;;;;;;1.07;1.07;;;;;;;;;;5013474;28;20516;-70
2022/09/11 12:53:53;;;;;;;0.90;0.90;;;;;;;;;;5013600;28;20880;-71
2022/09/11 12:56:21;;;;;;;2.10;1.00;;;;;;;;;;5012321;28;20418;-70
2022/09/11 12:58:52;;;;;;;1.80;1.03;;;;;;;;;;5012600;28;20419;-69
2022/09/11 13:01:23;;;;;;;0.90;0.90;;;;;;;;;;5013634;28;20418;-70
2022/09/11 13:04:22;;;;;;;1.47;0.90;;;;;;;;;;5013518;28;20879;-69
2022/09/11 13:06:53;;;;;;;0.70;0.70;;;;;;;;;;4945086;28;20807;-69
2022/09/11 13:09:26;;;;;;;0.80;0.80;;;;;;;;;;5017608;28;20400;-70
2022/09/11 13:11:53;;;;;;;0.77;0.70;;;;;;;;;;5017635;28;20414;-70
2022/09/11 13:14:28;;;;;;;1.43;0.70;;;;;;;;;;5017428;28;20412;-70
2022/09/11 13:16:54;;;;;;;1.00;1.00;;;;;;;;;;5017265;28;20410;-68
2022/09/11 13:19:21;;;;;;;2.17;0.73;;;;;;;;;;5017301;28;20412;-71
2022/09/11 13:21:52;;;;;;;1.80;1.07;;;;;;;;;;5015952;28;20419;-70
2022/09/11 13:24:23;;;;;;;0.83;0.83;;;;;;;;;;5017260;28;20425;-72
2022/09/11 13:26:54;;;;;;;1.77;1.00;;;;;;;;;;5017095;28;20436;-73
2022/09/11 13:29:20;;;;;;;0.73;0.73;;;;;;;;;;5017057;28;20408;-73
2022/09/11 13:31:46;;;;;;;1.13;0.93;;;;;;;;;;5017123;28;20452;-72
2022/09/11 13:34:13;;;;;;;1.10;1.10;;;;;;;;;;5016949;28;20435;-73
2022/09/11 13:36:39;;;;;;;0.97;0.97;;;;;;;;;;5017034;28;20411;-74
2022/09/11 13:39:06;;;;;;;0.67;0.67;;;;;;;;;;5016915;28;20408;-71
2022/09/11 13:41:35;;;;;;;2.40;0.90;;;;;;;;;;5016817;28;20830;-73
2022/09/11 13:44:01;;;;;;;0.90;0.90;;;;;;;;;;5016889;28;20915;-78
2022/09/11 13:46:30;;;;;;;0.70;0.70;;;;;;;;;;5016783;28;20423;-72
2022/09/11 13:48:59;;;;;;;1.37;0.70;;;;;;;;;;5016681;28;21005;-72
2022/09/11 13:51:29;;;;;;;1.50;0.73;;;;;;;;;;5016582;28;20481;-73
2022/09/11 13:54:16;;;;;;;1.03;1.03;;;;;;;;;;5016759;28;20420;-74
2022/09/11 13:56:46;;;;;;;1.60;0.70;;;;;;;;;;4999615;28;20429;-73
2022/09/11 13:59:31;;;;;;;0.90;0.90;;;;;;;;;;5016465;28;20408;-72
2022/09/11 14:02:01;;;;;;;1.00;1.00;;;;;;;;;;5016423;28;20465;-74
2022/09/11 14:04:31;;;;;;;2.30;1.10;;;;;;;;;;5016414;28;20411;-72
2022/09/11 14:06:57;;;;;;;0.90;0.90;;;;;;;;;;5016313;28;20867;-74
2022/09/11 14:09:23;;;;;;;4.93;0.90;;;;;;;;;;5016371;28;20472;-73
2022/09/11 14:11:50;;;;;;;1.10;1.10;;;;;;;;;;5016219;28;20421;-74
2022/09/11 14:14:20;;;;;;;1.00;1.00;;;;;;;;;;5016248;28;20408;-74
2022/09/11 14:16:48;;;;;;;1.10;1.10;;;;;;;;;;5016097;28;20416;-72
2022/09/11 14:19:16;;;;;;;1.17;1.00;;;;;;;;;;5015467;28;20766;-74
2022/09/11 14:21:44;;;;;;;1.10;1.10;;;;;;;;;;5016040;28;20406;-72
2022/09/11 14:24:29;;;;;;;2.50;1.20;;;;;;;;;;5016109;28;20447;-73
2022/09/11 14:26:58;;;;;;;1.43;1.13;;;;;;;;;;5016014;28;20428;-74
2022/09/11 14:29:29;;;;;;;0.90;0.90;;;;;;;;;;5015975;28;20412;-71
2022/09/11 14:32:15;;;;;;;1.30;1.30;;;;;;;;;;5015956;28;20445;-71
2022/09/11 14:34:41;;;;;;;0.80;0.80;;;;;;;;;;5015776;28;20528;-71
2022/09/11 14:37:11;;;;;;;1.73;1.30;;;;;;;;;;5014552;28;20890;-74
2022/09/11 14:39:39;;;;;;;2.30;1.20;;;;;;;;;;5015771;28;20434;-71
2022/09/11 14:42:09;;;;;;;2.30;1.03;;;;;;;;;;5014662;28;20893;-72
2022/09/11 14:44:38;;;;;;;3.77;0.97;;;;;;;;;;5015644;28;20434;-71
2022/09/11 14:47:04;;;;;;;1.03;1.00;;;;;;;;;;5015556;28;20415;-74
2022/09/11 14:49:30;;;;;;;0.90;0.90;;;;;;;;;;5015644;28;20438;-70
2022/09/11 14:52:00;;;;;;;1.20;1.10;;;;;;;;;;5015358;28;20545;-70
2022/09/11 14:54:29;;;;;;;3.13;1.00;;;;;;;;;;5015554;28;20902;-72
2022/09/11 14:56:55;;;;;;;0.70;0.70;;;;;;;;;;5015516;28;20504;-74
2022/09/11 14:59:21;;;;;;;0.90;0.90;;;;;;;;;;5015434;28;20917;-74